Time;durP1;ratioP1;P1;durP2;ratioP2;P2;SDS_P1;SDS_P2;PMS_P1;PMS_P2;Temp;Humidity;BMP_temperature;BMP_pressure;BME280_temperature;BME280_humidity;BME280_pressure;Samples;Min_cycle;Max_cycle;Signal;HPM_P1;HPM_P2
2022/05/25 00:00:14;;;;;;;3.70;1.08;;;12.10;71.40;;;;;;5040975;28;20454;-91
2022/05/25 00:02:41;;;;;;;2.88;1.05;;;12.00;71.40;;;;;;5041206;28;20046;-90
2022/05/25 00:05:11;;;;;;;5.40;1.42;;;12.00;71.50;;;;;;5039503;28;20506;-91
2022/05/25 00:07:38;;;;;;;5.00;1.20;;;12.00;71.60;;;;;;5036035;28;20037;-90
2022/05/25 00:10:05;;;;;;;3.75;1.15;;;12.00;71.60;;;;;;5052540;28;20453;-91
2022/05/25 00:12:32;;;;;;;3.85;1.17;;;11.90;71.70;;;;;;5052295;28;20041;-91
2022/05/25 00:15:05;;;;;;;8.63;1.20;;;11.90;71.70;;;;;;5046174;28;20141;-90
2022/05/25 00:17:32;;;;;;;4.10;0.95;;;11.90;71.80;;;;;;5042571;28;20098;-91
2022/05/25 00:19:59;;;;;;;1.80;0.88;;;11.90;71.80;;;;;;5052066;28;20056;-90
2022/05/25 00:22:29;;;;;;;2.78;0.90;;;11.90;71.90;;;;;;5051885;28;20059;-91
2022/05/25 00:24:57;;;;;;;4.72;0.90;;;11.90;71.90;;;;;;5028437;28;20057;-90
2022/05/25 00:27:24;;;;;;;2.47;0.90;;;11.80;71.90;;;;;;5042899;28;20458;-92
2022/05/25 00:29:51;;;;;;;3.50;1.00;;;11.80;72.00;;;;;;5040493;28;20052;-92
2022/05/25 00:32:18;;;;;;;5.22;1.20;;;11.80;72.00;;;;;;5040781;28;20045;-90
2022/05/25 00:34:45;;;;;;;2.75;0.90;;;11.80;72.00;;;;;;5034525;28;20056;-89
2022/05/25 00:37:12;;;;;;;3.70;0.93;;;11.80;72.10;;;;;;5048141;28;20045;-91
2022/05/25 00:39:40;;;;;;;2.85;1.05;;;11.80;72.10;;;;;;5051924;28;20110;-92
2022/05/25 00:42:07;;;;;;;4.82;0.98;;;11.80;72.10;;;;;;5044877;28;20052;-91
2022/05/25 00:44:34;;;;;;;4.25;1.15;;;11.70;72.10;;;;;;5040412;28;20114;-90
2022/05/25 00:47:02;;;;;;;4.03;1.20;;;11.70;72.10;;;;;;5038243;28;20051;-90
2022/05/25 00:49:34;;;;;;;3.58;1.33;;;11.70;72.20;;;;;;5051941;28;20045;-90
2022/05/25 00:52:07;;;;;;;6.75;1.10;;;11.60;72.20;;;;;;5036302;28;20049;-90
2022/05/25 00:54:40;;;;;;;2.97;1.00;;;11.70;72.20;;;;;;5050896;28;20118;-90
2022/05/25 00:57:22;;;;;;;6.03;1.10;;;11.60;72.30;;;;;;5051585;28;20110;-90
2022/05/25 01:00:11;;;;;;;3.83;0.80;;;11.60;72.30;;;;;;5047358;28;20049;-90
2022/05/25 01:02:41;;;;;;;2.78;1.00;;;11.60;72.30;;;;;;5042708;28;20052;-90
2022/05/25 01:05:14;;;;;;;4.82;1.10;;;11.50;72.40;;;;;;5051498;28;20052;-90
2022/05/25 01:08:16;;;;;;;2.67;0.93;;;11.50;72.40;;;;;;5051179;28;20076;-90
2022/05/25 01:10:58;;;;;;;2.28;0.88;;;11.50;72.50;;;;;;5051626;28;20052;-91
2022/05/25 01:13:47;;;;;;;3.08;0.90;;;11.50;72.50;;;;;;5049379;28;20087;-90
2022/05/25 01:16:19;;;;;;;3.33;0.98;;;11.50;72.50;;;;;;5048090;28;20107;-91
2022/05/25 01:18:49;;;;;;;2.95;0.95;;;11.50;72.50;;;;;;5051393;28;20057;-90
2022/05/25 01:21:28;;;;;;;3.60;1.00;;;11.40;72.60;;;;;;5043133;28;20046;-92
2022/05/25 01:24:19;;;;;;;2.70;0.85;;;11.40;72.60;;;;;;5039924;28;20567;-88
2022/05/25 01:27:20;;;;;;;3.20;0.90;;;11.40;72.60;;;;;;5043694;28;20053;-91
2022/05/25 01:30:04;;;;;;;4.47;0.90;;;11.40;72.50;;;;;;5047327;28;20053;-89
2022/05/25 01:32:49;;;;;;;2.53;0.90;;;11.40;72.60;;;;;;5039889;28;20095;-90
2022/05/25 01:35:29;;;;;;;;;;;11.40;72.60;;;;;;5039738;28;20052;-90
2022/05/25 01:38:11;;;;;;;2.80;0.93;;;11.40;72.60;;;;;;5039357;28;19975;-90
2022/05/25 01:40:58;;;;;;;2.47;0.93;;;11.30;72.60;;;;;;5038601;28;20530;-90
2022/05/25 01:43:50;;;;;;;2.58;0.80;;;11.30;72.60;;;;;;5052658;28;20041;-89
2022/05/25 01:46:25;;;;;;;4.28;1.00;;;11.30;72.60;;;;;;5051836;28;20115;-90
2022/05/25 01:48:55;;;;;;;4.97;1.10;;;11.30;72.70;;;;;;5042053;28;20042;-90
2022/05/25 01:51:32;;;;;;;3.95;1.05;;;11.20;72.70;;;;;;5051884;28;20507;-90
2022/05/25 01:54:03;;;;;;;2.95;0.85;;;11.20;72.70;;;;;;5049040;28;20557;-90
2022/05/25 01:56:33;;;;;;;3.22;1.00;;;11.20;72.70;;;;;;5043362;28;20561;-90
2022/05/25 01:59:03;;;;;;;2.47;0.80;;;11.20;72.70;;;;;;5041189;28;20045;-90
2022/05/25 02:01:31;;;;;;;2.45;1.05;;;11.20;72.70;;;;;;5038530;28;20056;-90
2022/05/25 02:07:27;;;;;;;2.58;1.02;;;11.20;72.80;;;;;;5054275;28;20056;-91
2022/05/25 02:10:20;;;;;;;3.53;1.20;;;11.10;72.80;;;;;;5031500;28;20056;-89
2022/05/25 02:13:48;;;;;;;3.00;1.10;;;11.10;72.80;;;;;;5054668;28;20053;-90
2022/05/25 02:16:40;;;;;;;2.58;0.93;;;11.10;72.80;;;;;;4989834;28;20108;-90
2022/05/25 02:19:22;;;;;;;2.55;1.08;;;11.00;72.80;;;;;;4978513;28;20055;-89
2022/05/25 02:21:56;;;;;;;3.45;1.00;;;11.00;72.80;;;;;;4980269;28;20058;-91
2022/05/25 02:24:31;;;;;;;2.50;0.95;;;11.00;72.80;;;;;;4981883;28;20094;-91
2022/05/25 02:27:30;;;;;;;3.90;1.05;;;11.00;72.90;;;;;;4965585;28;20461;-90
2022/05/25 02:30:02;;;;;;;3.65;1.00;;;11.00;72.90;;;;;;4981480;28;20109;-91
2022/05/25 02:32:41;;;;;;;3.50;0.90;;;11.00;72.90;;;;;;4981407;28;20093;-90
2022/05/25 02:35:09;;;;;;;4.85;0.95;;;10.90;72.90;;;;;;4980009;28;20500;-90
2022/05/25 02:37:37;;;;;;;3.50;0.93;;;10.90;72.90;;;;;;4976974;28;20116;-91
2022/05/25 02:40:08;;;;;;;2.28;1.02;;;10.90;72.90;;;;;;4978866;28;20051;-90
2022/05/25 02:42:38;;;;;;;3.40;1.02;;;10.90;72.90;;;;;;4981279;28;20097;-90
2022/05/25 02:45:07;;;;;;;2.45;0.90;;;10.90;72.90;;;;;;4981214;28;20061;-90
2022/05/25 02:47:34;;;;;;;3.60;0.95;;;10.90;73.00;;;;;;5036124;28;20430;-90
2022/05/25 02:50:01;;;;;;;2.85;0.90;;;10.90;73.00;;;;;;5052514;28;20041;-90
2022/05/25 02:52:28;;;;;;;3.45;1.20;;;10.90;73.00;;;;;;5037825;28;20049;-90
2022/05/25 02:54:55;;;;;;;2.78;0.93;;;10.90;73.00;;;;;;5040844;28;20057;-90
2022/05/25 02:57:22;;;;;;;1.75;0.88;;;10.80;73.10;;;;;;5042262;28;20053;-90
2022/05/25 02:59:49;;;;;;;3.00;1.00;;;10.80;73.10;;;;;;5041884;28;20056;-90
2022/05/25 03:02:17;;;;;;;2.38;0.85;;;10.80;73.10;;;;;;5041786;28;20665;-90
2022/05/25 03:04:44;;;;;;;3.90;1.13;;;10.80;73.10;;;;;;5035735;28;20052;-91
2022/05/25 03:07:10;;;;;;;3.75;1.17;;;10.80;73.10;;;;;;5054042;28;20048;-90
2022/05/25 03:09:37;;;;;;;2.88;1.30;;;10.80;73.10;;;;;;5042462;28;20119;-89
2022/05/25 03:12:06;;;;;;;3.10;1.10;;;10.80;73.00;;;;;;5042026;28;20053;-91
2022/05/25 03:14:34;;;;;;;3.35;1.13;;;10.70;73.10;;;;;;5042077;28;20083;-89
2022/05/25 03:17:09;;;;;;;3.30;1.30;;;10.70;73.00;;;;;;5039444;28;20044;-90
2022/05/25 03:19:37;;;;;;;2.17;0.93;;;10.70;73.10;;;;;;5053157;28;20060;-90
2022/05/25 03:22:04;;;;;;;2.67;1.08;;;10.70;73.10;;;;;;5053983;28;20060;-90
2022/05/25 03:24:31;;;;;;;2.50;1.20;;;10.70;73.10;;;;;;5052791;28;20053;-90
2022/05/25 03:26:58;;;;;;;3.17;1.27;;;10.70;73.10;;;;;;5052945;28;20577;-90
2022/05/25 03:29:26;;;;;;;2.88;1.20;;;10.70;73.10;;;;;;5052011;28;20045;-90
2022/05/25 03:31:53;;;;;;;2.97;1.10;;;10.70;73.10;;;;;;5037686;28;20091;-90
2022/05/25 03:34:21;;;;;;;2.90;1.17;;;10.70;73.10;;;;;;5037293;28;20050;-91
2022/05/25 03:36:48;;;;;;;4.40;1.23;;;10.60;73.10;;;;;;5052420;28;20053;-89
2022/05/25 03:39:15;;;;;;;2.95;1.10;;;10.60;73.00;;;;;;5044607;28;20527;-90
2022/05/25 03:41:42;;;;;;;2.78;1.00;;;10.60;73.10;;;;;;5044564;28;20098;-90
2022/05/25 03:44:13;;;;;;;3.30;1.33;;;10.60;73.00;;;;;;5052721;28;20580;-89
2022/05/25 03:46:40;;;;;;;3.78;1.33;;;10.60;73.00;;;;;;5036195;28;20049;-89
2022/05/25 03:49:07;;;;;;;3.60;1.30;;;10.60;73.00;;;;;;5038226;28;20045;-90
2022/05/25 03:51:33;;;;;;;4.25;1.45;;;10.60;73.10;;;;;;5051557;28;20053;-90
2022/05/25 03:54:00;;;;;;;3.40;1.20;;;10.50;73.10;;;;;;5046618;28;20099;-91
2022/05/25 03:56:27;;;;;;;4.20;1.30;;;10.50;73.10;;;;;;5041273;28;20049;-89
2022/05/25 03:58:54;;;;;;;3.05;1.10;;;10.50;73.10;;;;;;5037802;28;20040;-91
2022/05/25 04:01:21;;;;;;;3.20;1.38;;;10.50;73.10;;;;;;5035702;28;20053;-91
2022/05/25 04:03:48;;;;;;;3.97;1.23;;;10.50;73.20;;;;;;5039386;28;20049;-89
2022/05/25 04:06:14;;;;;;;3.65;1.20;;;10.50;73.20;;;;;;5040873;28;20053;-90
2022/05/25 04:08:41;;;;;;;6.70;1.25;;;10.50;73.20;;;;;;5040846;28;20041;-90
2022/05/25 04:11:08;;;;;;;3.90;1.35;;;10.40;73.20;;;;;;5039375;28;20457;-90
2022/05/25 04:13:35;;;;;;;3.47;1.65;;;10.40;73.30;;;;;;5036181;28;20053;-91
2022/05/25 04:16:02;;;;;;;3.53;1.35;;;10.40;73.30;;;;;;5038091;28;20049;-91
2022/05/25 04:18:30;;;;;;;3.72;1.40;;;10.40;73.30;;;;;;5040280;28;20423;-90
2022/05/25 04:20:56;;;;;;;5.88;1.40;;;10.40;73.40;;;;;;5040766;28;20084;-89
2022/05/25 04:23:26;;;;;;;4.57;1.40;;;10.40;73.40;;;;;;5040718;28;20041;-89
2022/05/25 04:25:54;;;;;;;2.95;1.42;;;10.40;73.50;;;;;;5037248;28;20044;-90
2022/05/25 04:28:21;;;;;;;3.05;1.30;;;10.40;73.60;;;;;;5036212;28;20045;-89
2022/05/25 04:30:48;;;;;;;4.75;1.90;;;10.40;73.60;;;;;;5034398;28;20052;-90
2022/05/25 04:33:16;;;;;;;4.07;1.40;;;10.40;73.60;;;;;;5044040;28;20056;-90
2022/05/25 04:35:44;;;;;;;3.10;1.17;;;10.40;73.70;;;;;;5043874;28;20058;-89
2022/05/25 04:38:15;;;;;;;3.90;1.45;;;10.40;73.80;;;;;;5051793;28;20450;-89
2022/05/25 04:40:44;;;;;;;4.40;1.40;;;10.40;73.80;;;;;;5035529;28;20041;-89
2022/05/25 04:43:20;;;;;;;6.35;1.40;;;10.40;73.90;;;;;;5052206;28;20049;-90
2022/05/25 04:45:49;;;;;;;4.55;1.52;;;10.40;74.00;;;;;;5051792;28;20422;-90
2022/05/25 04:48:20;;;;;;;8.20;1.58;;;10.40;74.00;;;;;;5043677;28;20053;-90
2022/05/25 04:50:48;;;;;;;5.57;1.50;;;10.40;74.10;;;;;;5040338;28;20139;-91
2022/05/25 04:53:17;;;;;;;3.65;1.40;;;10.40;74.20;;;;;;5039871;28;20040;-90
2022/05/25 04:58:37;;;;;;;4.97;1.75;;;10.40;74.30;;;;;;5049428;28;20045;-89
2022/05/25 05:01:06;;;;;;;3.63;1.60;;;10.40;74.40;;;;;;5036544;28;20099;-88
2022/05/25 05:03:33;;;;;;;3.60;1.27;;;10.40;74.50;;;;;;5050302;28;20049;-92
2022/05/25 05:06:01;;;;;;;4.45;1.55;;;10.40;74.60;;;;;;5045585;28;20053;-88
2022/05/25 05:08:29;;;;;;;4.03;1.50;;;10.40;74.70;;;;;;5039150;28;20044;-89
2022/05/25 05:10:56;;;;;;;4.05;1.50;;;10.40;74.80;;;;;;5044468;28;20048;-90
2022/05/25 05:13:23;;;;;;;5.05;1.70;;;10.50;74.90;;;;;;5049825;28;20509;-89
2022/05/25 05:15:53;;;;;;;8.00;1.77;;;10.50;75.00;;;;;;5054694;28;20052;-89
2022/05/25 05:18:23;;;;;;;3.83;1.48;;;10.50;75.10;;;;;;5052636;28;20487;-92
2022/05/25 05:20:50;;;;;;;5.45;1.60;;;10.50;75.20;;;;;;5051639;28;20059;-90
2022/05/25 05:23:17;;;;;;;5.03;1.70;;;10.60;75.30;;;;;;5053205;28;20036;-91
2022/05/25 05:25:44;;;;;;;5.13;1.70;;;10.50;75.30;;;;;;5035730;28;20057;-91
2022/05/25 05:28:16;;;;;;;4.57;1.55;;;10.60;75.50;;;;;;5035533;28;20053;-90
2022/05/25 05:30:50;;;;;;;4.38;1.52;;;10.60;75.60;;;;;;5043327;28;20060;-91
2022/05/25 05:33:20;;;;;;;4.00;1.30;;;10.60;75.70;;;;;;5042925;28;20045;-90
2022/05/25 05:35:51;;;;;;;4.80;1.50;;;10.70;75.70;;;;;;5046900;28;20098;-90
2022/05/25 05:38:19;;;;;;;4.30;1.42;;;10.70;75.80;;;;;;5052964;28;20102;-92
2022/05/25 05:40:46;;;;;;;6.45;1.67;;;10.70;76.00;;;;;;5051143;28;20459;-92
2022/05/25 05:43:13;;;;;;;4.93;1.70;;;10.80;76.10;;;;;;5035353;28;20053;-91
2022/05/25 05:45:44;;;;;;;5.75;1.70;;;10.80;76.20;;;;;;5049624;28;20048;-91
2022/05/25 05:48:19;;;;;;;7.88;1.70;;;10.90;76.30;;;;;;5039826;28;20408;-90
2022/05/25 05:50:51;;;;;;;3.38;1.45;;;10.90;76.40;;;;;;5042877;28;20140;-91
2022/05/25 05:53:18;;;;;;;3.90;1.75;;;10.90;76.50;;;;;;5051251;28;20045;-91
2022/05/25 05:55:46;;;;;;;7.03;2.03;;;11.00;76.60;;;;;;5037977;28;20080;-89
2022/05/25 05:58:13;;;;;;;6.03;1.90;;;10.90;76.70;;;;;;5034936;28;20085;-91
2022/05/25 06:00:40;;;;;;;7.10;1.98;;;11.00;76.80;;;;;;5050820;28;20099;-91
2022/05/25 06:03:08;;;;;;;11.13;2.05;;;11.10;76.90;;;;;;5050918;28;20111;-91
2022/05/25 06:05:35;;;;;;;7.70;1.90;;;11.10;77.00;;;;;;5050650;28;20053;-91
2022/05/25 06:08:07;;;;;;;8.70;1.83;;;11.20;77.10;;;;;;5050013;28;20115;-89
2022/05/25 06:10:35;;;;;;;5.80;1.63;;;11.20;77.10;;;;;;5050852;28;20098;-90
2022/05/25 06:13:03;;;;;;;6.78;2.00;;;11.30;77.20;;;;;;5053198;28;20420;-91
2022/05/25 06:21:02;;;;;;;6.88;2.08;;;11.40;77.30;;;;;;5050392;28;20044;-90
2022/05/25 06:23:29;;;;;;;7.63;2.05;;;11.50;77.40;;;;;;5050017;28;20074;-89
2022/05/25 06:25:56;;;;;;;6.20;2.05;;;11.50;77.40;;;;;;5049927;28;20112;-89
2022/05/25 06:28:23;;;;;;;7.97;1.98;;;11.50;77.50;;;;;;5053130;28;20505;-90
2022/05/25 06:30:50;;;;;;;4.63;1.60;;;11.70;77.60;;;;;;5053187;28;20577;-90
2022/05/25 06:33:17;;;;;;;7.05;2.25;;;11.70;77.60;;;;;;5050130;28;20053;-91
2022/05/25 06:35:44;;;;;;;5.72;1.90;;;11.80;77.70;;;;;;5051549;28;20048;-91
2022/05/25 06:38:12;;;;;;;6.28;1.95;;;11.80;77.70;;;;;;5051598;28;20041;-89
2022/05/25 06:40:39;;;;;;;7.07;2.20;;;11.90;77.80;;;;;;5051357;28;20215;-90
2022/05/25 06:43:06;;;;;;;6.85;2.28;;;11.90;77.80;;;;;;5054115;28;20059;-89
2022/05/25 06:45:33;;;;;;;5.32;1.95;;;11.90;77.80;;;;;;5049573;28;20049;-89
2022/05/25 06:48:04;;;;;;;7.05;1.92;;;12.00;77.90;;;;;;5033236;28;20053;-90
2022/05/25 06:50:31;;;;;;;6.63;2.40;;;12.10;77.90;;;;;;5049843;28;20055;-90
2022/05/25 06:52:58;;;;;;;10.13;2.55;;;12.20;78.00;;;;;;5049768;28;20041;-88
2022/05/25 06:55:24;;;;;;;6.22;2.25;;;12.20;78.00;;;;;;5034360;28;20045;-87
2022/05/25 06:57:52;;;;;;;7.03;2.40;;;12.30;78.10;;;;;;5052903;28;20472;-89
2022/05/25 07:00:19;;;;;;;9.32;2.33;;;12.40;78.10;;;;;;5049142;28;20099;-90
2022/05/25 07:02:46;;;;;;;7.07;2.55;;;12.40;78.20;;;;;;5050911;28;20059;-89
2022/05/25 07:05:13;;;;;;;7.05;2.80;;;12.40;78.30;;;;;;5049390;28;20048;-88
2022/05/25 07:07:40;;;;;;;9.10;2.38;;;12.50;78.30;;;;;;5050671;28;20053;-89
2022/05/25 07:10:07;;;;;;;6.25;2.25;;;12.60;78.30;;;;;;5052341;28;20049;-88
2022/05/25 07:12:34;;;;;;;9.63;2.50;;;12.60;78.40;;;;;;5048958;28;20099;-88
2022/05/25 07:15:00;;;;;;;10.15;2.10;;;12.70;78.40;;;;;;5049059;28;20052;-89
2022/05/25 07:17:27;;;;;;;7.10;2.13;;;12.80;78.40;;;;;;5048873;28;20045;-88
2022/05/25 07:19:54;;;;;;;11.60;2.45;;;12.80;78.40;;;;;;5048976;28;20045;-88
2022/05/25 07:22:22;;;;;;;9.77;2.53;;;12.90;78.40;;;;;;5051889;28;20079;-90
2022/05/25 07:24:49;;;;;;;7.03;2.42;;;12.90;78.40;;;;;;5049493;28;20091;-91
2022/05/25 07:27:16;;;;;;;8.70;2.22;;;13.00;78.40;;;;;;5048908;28;20053;-90
2022/05/25 07:29:43;;;;;;;7.43;2.60;;;13.10;78.50;;;;;;5050922;28;20511;-92
2022/05/25 07:32:12;;;;;;;11.88;2.15;;;13.20;78.40;;;;;;5048920;28;20059;-90
2022/05/25 07:35:00;;;;;;;8.30;2.10;;;13.20;78.40;;;;;;5049841;28;20534;-88
2022/05/25 07:37:33;;;;;;;7.60;2.40;;;13.30;78.40;;;;;;5048977;28;20059;-91
2022/05/25 07:40:05;;;;;;;7.95;2.35;;;13.40;78.30;;;;;;5051027;28;20040;-90
2022/05/25 07:42:33;;;;;;;8.57;1.80;;;13.40;78.20;;;;;;5050130;28;20091;-91
2022/05/25 07:45:03;;;;;;;15.00;2.55;;;13.50;78.10;;;;;;5050413;28;20041;-90
2022/05/25 07:47:31;;;;;;;9.02;1.80;;;13.60;78.00;;;;;;5049061;28;20080;-89
2022/05/25 07:49:59;;;;;;;5.20;1.70;;;13.70;78.00;;;;;;5030963;28;20038;-90
2022/05/25 07:52:30;;;;;;;6.28;1.95;;;13.80;77.90;;;;;;5050783;28;20049;-90
2022/05/25 07:54:58;;;;;;;4.97;1.90;;;13.90;77.80;;;;;;5050671;28;20075;-90
2022/05/25 07:57:25;;;;;;;5.93;1.63;;;13.90;77.70;;;;;;5048496;28;20053;-90
2022/05/25 07:59:52;;;;;;;6.00;1.70;;;14.00;77.50;;;;;;5048358;28;20053;-90
2022/05/25 08:08:05;;;;;;;5.18;2.00;;;14.20;77.00;;;;;;5035004;28;20038;-91
2022/05/25 08:10:33;;;;;;;5.00;1.48;;;14.40;76.80;;;;;;5049532;28;20507;-89
2022/05/25 08:13:01;;;;;;;7.03;1.98;;;14.40;76.60;;;;;;5052497;28;20466;-91
2022/05/25 08:15:31;;;;;;;3.53;1.27;;;14.50;76.50;;;;;;5048052;28;20466;-90
2022/05/25 08:17:58;;;;;;;5.68;1.88;;;14.50;76.30;;;;;;5047817;28;20099;-89
2022/05/25 08:20:26;;;;;;;6.97;1.40;;;14.70;76.10;;;;;;5048216;28;20078;-89
2022/05/25 08:22:53;;;;;;;6.65;1.63;;;14.80;75.90;;;;;;5049540;28;20045;-90
2022/05/25 08:25:20;;;;;;;4.75;1.40;;;14.90;75.70;;;;;;5051365;28;20052;-90
2022/05/25 08:27:47;;;;;;;4.90;1.20;;;14.90;75.50;;;;;;5050658;28;20048;-91
2022/05/25 08:30:20;;;;;;;8.20;1.52;;;15.00;75.50;;;;;;5047797;28;20057;-90
2022/05/25 08:32:48;;;;;;;3.85;1.30;;;15.10;75.20;;;;;;5030498;28;20349;-90
2022/05/25 08:35:16;;;;;;;6.47;1.50;;;15.20;75.10;;;;;;5047854;28;20045;-91
2022/05/25 08:37:43;;;;;;;5.45;1.60;;;15.30;74.90;;;;;;5048514;28;20516;-92
2022/05/25 08:40:13;;;;;;;6.97;1.65;;;15.40;74.60;;;;;;5051615;28;20351;-90
2022/05/25 08:42:45;;;;;;;4.63;1.42;;;15.40;74.30;;;;;;5047728;28;20462;-90
2022/05/25 08:45:13;;;;;;;4.60;1.30;;;15.60;74.10;;;;;;5047986;28;20049;-89
2022/05/25 08:47:52;;;;;;;7.45;2.35;;;15.70;73.80;;;;;;5047801;28;20048;-90
2022/05/25 08:50:19;;;;;;;4.53;1.42;;;15.70;73.40;;;;;;5047468;28;20079;-91
2022/05/25 08:52:46;;;;;;;5.72;1.35;;;15.80;73.10;;;;;;5032321;28;20523;-90
2022/05/25 08:55:31;;;;;;;6.90;1.40;;;15.80;72.70;;;;;;5047790;28;20048;-89
2022/05/25 08:58:01;;;;;;;6.10;1.40;;;15.80;72.40;;;;;;5050064;28;20044;-91
2022/05/25 09:00:28;;;;;;;4.72;1.38;;;15.90;72.20;;;;;;5047713;28;20430;-91
2022/05/25 09:03:11;;;;;;;3.78;1.13;;;15.90;72.10;;;;;;5047898;28;20053;-89
2022/05/25 09:05:44;;;;;;;4.00;1.10;;;15.90;72.00;;;;;;5048935;28;20515;-91
2022/05/25 09:08:13;;;;;;;6.67;1.17;;;15.90;71.80;;;;;;5030071;28;20048;-91
2022/05/25 09:10:53;;;;;;;5.10;1.42;;;16.00;71.60;;;;;;5048517;28;20519;-91
2022/05/25 09:13:39;;;;;;;5.03;1.10;;;16.00;71.30;;;;;;5047154;28;20045;-91
2022/05/25 09:16:17;;;;;;;7.18;1.25;;;16.10;71.20;;;;;;5050814;28;20053;-89
2022/05/25 09:18:59;;;;;;;3.10;1.00;;;16.20;71.00;;;;;;5048090;28;20470;-90
2022/05/25 09:21:31;;;;;;;3.70;1.13;;;16.20;70.70;;;;;;5047016;28;20560;-91
2022/05/25 09:24:03;;;;;;;3.40;1.00;;;16.20;70.40;;;;;;5048857;28;20049;-92
2022/05/25 09:26:31;;;;;;;3.28;1.00;;;16.30;70.20;;;;;;5047210;28;20045;-92
2022/05/25 09:29:03;;;;;;;3.35;0.93;;;16.40;70.10;;;;;;5047491;28;20050;-91
2022/05/25 09:31:40;;;;;;;7.40;1.45;;;16.40;70.00;;;;;;5049919;28;20049;-91
2022/05/25 09:34:13;;;;;;;3.22;0.90;;;16.50;69.90;;;;;;5050552;28;20114;-91
2022/05/25 09:36:49;;;;;;;3.75;0.82;;;16.50;69.70;;;;;;5047106;28;20447;-90
2022/05/25 09:39:16;;;;;;;4.30;1.27;;;16.60;69.50;;;;;;5047447;28;20052;-89
2022/05/25 09:41:45;;;;;;;7.15;1.20;;;16.70;69.40;;;;;;5047557;28;20052;-91
2022/05/25 09:44:19;;;;;;;3.22;0.88;;;16.80;68.90;;;;;;5049026;28;20041;-90
2022/05/25 09:47:01;;;;;;;3.72;0.90;;;16.90;68.40;;;;;;5031743;28;20057;-90
2022/05/25 09:49:31;;;;;;;3.83;0.98;;;16.90;68.10;;;;;;5029216;28;20048;-91
2022/05/25 09:52:02;;;;;;;4.60;1.05;;;17.00;67.70;;;;;;5049601;28;20491;-89
2022/05/25 09:54:38;;;;;;;8.10;0.93;;;17.10;67.40;;;;;;5047021;28;20103;-89
2022/05/25 09:57:09;;;;;;;4.15;1.00;;;17.10;67.20;;;;;;5047018;28;20458;-89
2022/05/25 10:00:16;;;;;;;5.72;1.15;;;17.20;67.00;;;;;;5050307;28;20053;-89
2022/05/25 10:02:46;;;;;;;4.72;0.95;;;17.30;66.80;;;;;;4989447;28;20077;-89
2022/05/25 10:05:19;;;;;;;5.40;1.00;;;17.40;66.40;;;;;;4992163;28;20132;-91
2022/05/25 10:08:08;;;;;;;3.45;0.82;;;17.50;65.90;;;;;;4992162;28;20051;-90
2022/05/25 10:10:50;;;;;;;2.47;0.68;;;17.50;65.60;;;;;;4990752;28;20077;-91
2022/05/25 10:13:22;;;;;;;4.15;1.17;;;17.60;65.40;;;;;;4989115;28;20157;-90
2022/05/25 10:15:52;;;;;;;2.20;0.75;;;17.70;65.20;;;;;;4992881;28;20505;-90
2022/05/25 10:18:34;;;;;;;3.70;0.85;;;17.80;64.90;;;;;;4991542;28;20054;-91
2022/05/25 10:21:03;;;;;;;2.70;0.93;;;17.90;64.40;;;;;;4991975;28;20077;-91
2022/05/25 10:23:31;;;;;;;5.03;1.02;;;17.90;64.10;;;;;;4991981;28;20132;-90
2022/05/25 10:26:12;;;;;;;2.22;0.70;;;17.90;63.60;;;;;;4991886;28;20109;-91
2022/05/25 10:28:46;;;;;;;3.22;0.93;;;18.00;63.30;;;;;;4991755;28;20137;-92
2022/05/25 10:37:05;;;;;;;3.95;1.00;;;18.20;63.00;;;;;;4992493;28;19922;-92
2022/05/25 10:39:39;;;;;;;1.67;0.60;;;18.20;62.80;;;;;;4999250;28;20053;-91
2022/05/25 10:42:19;;;;;;;2.30;0.80;;;18.20;62.60;;;;;;5010530;28;20054;-92
2022/05/25 10:45:09;;;;;;;2.55;0.90;;;18.20;62.50;;;;;;5011979;28;20042;-91
2022/05/25 10:50:43;;;;;;;2.85;0.80;;;18.30;62.10;;;;;;5010268;28;20042;-91
2022/05/25 10:53:41;;;;;;;4.53;0.85;;;18.30;62.00;;;;;;5000310;28;20073;-91
2022/05/25 10:56:50;;;;;;;1.63;0.68;;;18.30;61.80;;;;;;5010331;28;20061;-91
2022/05/25 10:59:40;;;;;;;2.97;1.10;;;18.40;61.70;;;;;;4998578;28;20046;-92
2022/05/25 11:02:52;;;;;;;2.80;1.00;;;18.30;61.50;;;;;;4998721;28;20049;-91
2022/05/25 11:06:02;;;;;;;3.35;0.90;;;18.30;61.30;;;;;;4999058;28;20042;-92
2022/05/25 11:08:53;;;;;;;4.22;1.20;;;18.30;61.40;;;;;;5000204;28;20100;-90
2022/05/25 11:11:28;;;;;;;3.00;0.85;;;18.30;61.40;;;;;;5009675;28;20038;-92
2022/05/25 11:14:48;;;;;;;3.15;0.93;;;18.20;61.50;;;;;;5009925;28;20075;-92
2022/05/25 11:17:35;;;;;;;3.13;1.23;;;18.20;61.50;;;;;;4932949;29;20070;-92
2022/05/25 11:20:31;;;;;;;3.63;1.15;;;18.20;61.50;;;;;;4950599;29;20146;-90
2022/05/25 11:23:27;;;;;;;5.75;1.13;;;18.20;61.40;;;;;;4952307;29;20094;-92
2022/05/25 11:26:13;;;;;;;3.83;1.30;;;18.20;61.30;;;;;;4952164;29;20110;-91
2022/05/25 11:29:11;;;;;;;2.83;1.00;;;18.20;61.20;;;;;;4938444;29;20544;-91
2022/05/25 11:31:56;;;;;;;2.20;1.00;;;18.20;61.20;;;;;;4951675;29;20070;-92
2022/05/25 11:34:49;;;;;;;4.75;1.15;;;18.20;61.20;;;;;;4933469;29;20056;-90
2022/05/25 11:37:21;;;;;;;3.63;1.20;;;18.20;61.20;;;;;;4953103;29;20084;-92
2022/05/25 11:40:16;;;;;;;5.35;1.33;;;18.20;61.30;;;;;;4952587;28;20055;-90
2022/05/25 11:42:55;;;;;;;4.80;1.10;;;18.30;61.30;;;;;;4945640;28;20051;-91
2022/05/25 11:45:31;;;;;;;6.40;1.40;;;18.30;61.20;;;;;;4951519;28;20054;-90
2022/05/25 11:48:28;;;;;;;2.88;1.10;;;18.30;61.10;;;;;;4996092;28;20052;-91
2022/05/25 11:51:13;;;;;;;3.40;1.05;;;18.30;60.90;;;;;;4970797;28;20090;-90
2022/05/25 11:53:59;;;;;;;4.75;1.25;;;18.30;60.70;;;;;;4970759;28;20621;-90
2022/05/25 11:56:46;;;;;;;3.88;1.17;;;18.30;60.60;;;;;;4970821;28;20101;-90
2022/05/25 12:00:07;;;;;;;4.10;1.10;;;18.30;60.50;;;;;;4970183;28;20191;-91
2022/05/25 12:02:45;;;;;;;3.08;1.00;;;18.20;60.60;;;;;;4936258;29;20090;-91
2022/05/25 12:05:21;;;;;;;7.75;1.65;;;18.20;60.70;;;;;;4935471;29;20063;-90
2022/05/25 12:08:05;;;;;;;4.75;1.27;;;18.20;60.80;;;;;;4931992;29;20051;-91
2022/05/25 12:10:40;;;;;;;3.55;1.13;;;18.20;60.90;;;;;;4933637;29;20506;-91
2022/05/25 12:13:26;;;;;;;3.63;1.25;;;18.20;60.90;;;;;;4937480;29;20055;-89
2022/05/25 12:16:05;;;;;;;3.72;1.10;;;18.20;60.90;;;;;;4937286;28;20055;-91
2022/05/25 12:19:05;;;;;;;4.75;1.27;;;18.20;60.80;;;;;;4935938;29;20096;-91
2022/05/25 12:21:37;;;;;;;4.93;1.20;;;18.20;60.80;;;;;;4935948;28;20051;-91
2022/05/25 12:24:09;;;;;;;2.92;0.98;;;18.30;60.80;;;;;;4935927;29;20095;-90
2022/05/25 12:26:38;;;;;;;3.50;1.00;;;18.20;60.70;;;;;;4917467;29;20075;-88
2022/05/25 12:29:18;;;;;;;3.97;1.30;;;18.30;60.70;;;;;;4984289;28;20104;-90
2022/05/25 12:31:50;;;;;;;5.47;1.23;;;18.20;60.60;;;;;;4990070;28;20077;-91
2022/05/25 12:34:23;;;;;;;5.00;1.20;;;18.10;60.50;;;;;;4986900;28;20487;-91
2022/05/25 12:36:51;;;;;;;3.83;1.42;;;18.10;60.50;;;;;;5008321;28;20046;-91
2022/05/25 12:39:43;;;;;;;1.92;0.90;;;18.10;60.60;;;;;;5027875;28;20522;-90
2022/05/25 12:42:22;;;;;;;2.97;1.17;;;18.00;60.80;;;;;;5027978;28;20108;-92
2022/05/25 12:51:05;;;;;;;4.93;1.30;;;17.90;61.40;;;;;;5027793;28;20095;-92
2022/05/25 12:53:59;;;;;;;4.57;1.30;;;17.90;61.50;;;;;;5027722;28;20045;-90
2022/05/25 12:56:26;;;;;;;;;;;17.90;61.60;;;;;;5028076;28;20589;-90
2022/05/25 12:59:00;;;;;;;4.22;1.10;;;17.90;61.70;;;;;;5029293;28;19921;-90
2022/05/25 13:01:27;;;;;;;;;;;17.80;61.90;;;;;;5030982;28;20053;-90
2022/05/25 13:03:54;;;;;;;6.43;1.38;;;17.90;62.10;;;;;;5029704;28;20405;-91
2022/05/25 13:06:30;;;;;;;3.28;1.23;;;17.90;62.20;;;;;;5027930;28;20049;-91
2022/05/25 13:08:58;;;;;;;5.07;1.25;;;17.90;62.20;;;;;;5027680;28;20103;-90
2022/05/25 13:11:46;;;;;;;3.47;1.17;;;17.80;62.30;;;;;;5029029;28;20107;-90
2022/05/25 13:14:22;;;;;;;5.43;1.30;;;17.90;62.30;;;;;;5027766;28;20045;-91
2022/05/25 13:16:49;;;;;;;4.40;1.00;;;17.90;62.40;;;;;;5012346;28;20053;-92
2022/05/25 13:19:16;;;;;;;6.97;1.23;;;17.90;62.40;;;;;;5043485;28;20045;-91
2022/05/25 13:22:06;;;;;;;5.38;1.15;;;17.90;62.50;;;;;;5047066;28;20052;-91
2022/05/25 13:25:03;;;;;;;5.35;0.90;;;17.90;62.50;;;;;;5047037;28;20049;-90
2022/05/25 13:27:47;;;;;;;5.68;1.20;;;17.90;62.50;;;;;;5047048;28;20135;-90
2022/05/25 13:30:26;;;;;;;6.65;1.20;;;17.90;62.60;;;;;;5047301;28;20057;-90
2022/05/25 13:33:00;;;;;;;7.07;1.10;;;17.90;62.70;;;;;;5048080;28;20053;-89
2022/05/25 13:35:45;;;;;;;5.10;1.23;;;17.90;62.70;;;;;;5051270;28;20055;-91
2022/05/25 13:38:34;;;;;;;4.25;0.90;;;17.90;62.80;;;;;;5051505;28;20049;-91
2022/05/25 13:41:10;;;;;;;3.45;1.27;;;17.90;62.90;;;;;;5037569;28;20076;-91
2022/05/25 13:43:47;;;;;;;4.32;0.95;;;17.90;63.00;;;;;;5052733;28;20048;-91
2022/05/25 13:46:29;;;;;;;4.22;1.00;;;17.90;63.00;;;;;;5051436;28;20045;-90
2022/05/25 13:48:57;;;;;;;3.67;1.02;;;17.90;63.00;;;;;;5054898;28;20056;-90
2022/05/25 13:51:25;;;;;;;3.38;1.02;;;17.90;63.10;;;;;;5050876;28;20457;-91
2022/05/25 13:53:52;;;;;;;2.75;0.80;;;17.90;63.10;;;;;;5050989;28;20045;-91